Akwesasne, New York
Current Conditions -  °F | °C
As of 8:53 PM on Saturday 20 Dec 2014 (Local Time) from KMSS Reporting Station
Clear Clear  
Wind Chill: -12°   Ceiling: Unl
Heat Index: -12°   Visibility: 7mi
Dew Point: -14°   Wind: 0mph
Humidity: 84%   Direction: NA
Pressure: 30.34"   Gusts: NA
Location:  44.9835°N, 74.6107°W
Report Text: KMSS 210153Z AUTO 00000KT 7SM CLR M12/M14 A3034 RMK AO2 SLP286 I1001 T11221144
Loading
Personal Weather Stations






























Interactive Weather Map New forecast layout! Learn more

10-Day Weather Forecast

Advertisements
Track Severe Weather on mobile